sensor_id;sensor_type;location;lat;lon;timestamp;temperature;humidity
66962;HTU21D;53897;51.126;5.868;2023-07-02T00:00:28;26.87;46.25
66962;HTU21D;53897;51.126;5.868;2023-07-02T00:02:54;26.90;46.21
66962;HTU21D;53897;51.126;5.868;2023-07-02T00:05:19;26.87;46.19
66962;HTU21D;53897;51.126;5.868;2023-07-02T00:07:45;26.87;46.15
66962;HTU21D;53897;51.126;5.868;2023-07-02T00:10:11;26.86;46.12
66962;HTU21D;53897;51.126;5.868;2023-07-02T00:12:37;26.89;46.10
66962;HTU21D;53897;51.126;5.868;2023-07-02T00:15:03;26.89;46.09
66962;HTU21D;53897;51.126;5.868;2023-07-02T00:17:30;26.87;46.08
66962;HTU21D;53897;51.126;5.868;2023-07-02T00:19:55;26.87;46.01
66962;HTU21D;53897;51.126;5.868;2023-07-02T00:22:21;26.87;45.99
66962;HTU21D;53897;51.126;5.868;2023-07-02T00:24:47;26.87;45.99
66962;HTU21D;53897;51.126;5.868;2023-07-02T00:27:13;26.86;45.99
66962;HTU21D;53897;51.126;5.868;2023-07-02T00:29:39;26.86;45.96
66962;HTU21D;53897;51.126;5.868;2023-07-02T00:32:05;26.86;45.95
66962;HTU21D;53897;51.126;5.868;2023-07-02T00:34:31;26.85;45.91
66962;HTU21D;53897;51.126;5.868;2023-07-02T00:36:56;26.85;45.88
66962;HTU21D;53897;51.126;5.868;2023-07-02T00:39:22;26.83;45.83
66962;HTU21D;53897;51.126;5.868;2023-07-02T00:41:48;26.84;45.80
66962;HTU21D;53897;51.126;5.868;2023-07-02T00:44:14;26.83;45.81
66962;HTU21D;53897;51.126;5.868;2023-07-02T00:46:40;26.82;45.80
66962;HTU21D;53897;51.126;5.868;2023-07-02T00:49:08;26.83;45.74
66962;HTU21D;53897;51.126;5.868;2023-07-02T00:51:35;26.83;45.72
66962;HTU21D;53897;51.126;5.868;2023-07-02T00:54:01;26.81;45.70
66962;HTU21D;53897;51.126;5.868;2023-07-02T00:56:26;26.82;45.69
66962;HTU21D;53897;51.126;5.868;2023-07-02T00:58:54;26.81;45.67
66962;HTU21D;53897;51.126;5.868;2023-07-02T01:01:26;26.80;45.67
66962;HTU21D;53897;51.126;5.868;2023-07-02T01:06:26;26.80;45.61
66962;HTU21D;53897;51.126;5.868;2023-07-02T01:08:55;26.79;45.63
66962;HTU21D;53897;51.126;5.868;2023-07-02T01:11:26;26.79;45.62
66962;HTU21D;53897;51.126;5.868;2023-07-02T01:13:57;26.79;45.62
66962;HTU21D;53897;51.126;5.868;2023-07-02T01:16:25;26.78;45.62
66962;HTU21D;53897;51.126;5.868;2023-07-02T01:18:53;26.78;45.61
66962;HTU21D;53897;51.126;5.868;2023-07-02T01:21:22;26.79;45.61
66962;HTU21D;53897;51.126;5.868;2023-07-02T01:23:48;26.77;45.57
66962;HTU21D;53897;51.126;5.868;2023-07-02T01:26:14;26.77;45.55
66962;HTU21D;53897;51.126;5.868;2023-07-02T01:28:41;26.77;45.57
66962;HTU21D;53897;51.126;5.868;2023-07-02T01:31:07;26.77;45.55
66962;HTU21D;53897;51.126;5.868;2023-07-02T01:33:33;26.77;45.54
66962;HTU21D;53897;51.126;5.868;2023-07-02T01:35:58;26.77;45.53
66962;HTU21D;53897;51.126;5.868;2023-07-02T01:38:24;26.76;45.50
66962;HTU21D;53897;51.126;5.868;2023-07-02T01:40:50;26.76;45.49
66962;HTU21D;53897;51.126;5.868;2023-07-02T01:43:16;26.75;45.44
66962;HTU21D;53897;51.126;5.868;2023-07-02T01:45:42;26.73;45.47
66962;HTU21D;53897;51.126;5.868;2023-07-02T01:48:07;26.73;45.46
66962;HTU21D;53897;51.126;5.868;2023-07-02T01:50:33;26.75;45.46
66962;HTU21D;53897;51.126;5.868;2023-07-02T01:52:59;26.73;45.42
66962;HTU21D;53897;51.126;5.868;2023-07-02T01:55:25;26.72;45.41
66962;HTU21D;53897;51.126;5.868;2023-07-02T01:57:51;26.72;45.42
66962;HTU21D;53897;51.126;5.868;2023-07-02T02:00:17;26.72;45.44
66962;HTU21D;53897;51.126;5.868;2023-07-02T02:02:43;26.72;45.45
66962;HTU21D;53897;51.126;5.868;2023-07-02T02:05:09;26.72;45.48
66962;HTU21D;53897;51.126;5.868;2023-07-02T02:07:38;26.70;45.47
66962;HTU21D;53897;51.126;5.868;2023-07-02T02:10:04;26.70;45.48
66962;HTU21D;53897;51.126;5.868;2023-07-02T02:12:30;26.70;45.47
66962;HTU21D;53897;51.126;5.868;2023-07-02T02:14:56;26.69;45.43
66962;HTU21D;53897;51.126;5.868;2023-07-02T02:17:22;26.69;45.44
66962;HTU21D;53897;51.126;5.868;2023-07-02T02:19:49;26.70;45.36
66962;HTU21D;53897;51.126;5.868;2023-07-02T02:22:15;26.70;45.37
66962;HTU21D;53897;51.126;5.868;2023-07-02T02:24:42;26.69;45.38
66962;HTU21D;53897;51.126;5.868;2023-07-02T02:27:08;26.67;45.38
66962;HTU21D;53897;51.126;5.868;2023-07-02T02:29:34;26.68;45.36
66962;HTU21D;53897;51.126;5.868;2023-07-02T02:32:00;26.67;45.40
66962;HTU21D;53897;51.126;5.868;2023-07-02T02:34:26;26.67;45.43
66962;HTU21D;53897;51.126;5.868;2023-07-02T02:36:51;26.67;45.38
66962;HTU21D;53897;51.126;5.868;2023-07-02T02:39:17;26.67;45.38
66962;HTU21D;53897;51.126;5.868;2023-07-02T02:41:43;26.66;45.32
66962;HTU21D;53897;51.126;5.868;2023-07-02T02:44:12;26.66;45.34
66962;HTU21D;53897;51.126;5.868;2023-07-02T02:46:38;26.66;45.35
66962;HTU21D;53897;51.126;5.868;2023-07-02T02:49:04;26.64;45.34
66962;HTU21D;53897;51.126;5.868;2023-07-02T02:51:30;26.63;45.32
66962;HTU21D;53897;51.126;5.868;2023-07-02T02:53:56;26.65;45.33
66962;HTU21D;53897;51.126;5.868;2023-07-02T02:56:21;26.65;45.34
66962;HTU21D;53897;51.126;5.868;2023-07-02T02:58:47;26.63;45.38
66962;HTU21D;53897;51.126;5.868;2023-07-02T03:01:13;26.62;45.38
66962;HTU21D;53897;51.126;5.868;2023-07-02T03:03:41;26.63;45.35
66962;HTU21D;53897;51.126;5.868;2023-07-02T03:06:12;26.62;45.31
66962;HTU21D;53897;51.126;5.868;2023-07-02T03:08:39;26.62;45.30
66962;HTU21D;53897;51.126;5.868;2023-07-02T03:11:04;26.62;45.32
66962;HTU21D;53897;51.126;5.868;2023-07-02T03:13:30;26.60;45.33
66962;HTU21D;53897;51.126;5.868;2023-07-02T03:15:56;26.61;45.27
66962;HTU21D;53897;51.126;5.868;2023-07-02T03:18:22;26.61;45.16
66962;HTU21D;53897;51.126;5.868;2023-07-02T03:20:47;26.61;45.19
66962;HTU21D;53897;51.126;5.868;2023-07-02T03:23:13;26.60;45.18
66962;HTU21D;53897;51.126;5.868;2023-07-02T03:25:39;26.60;45.19
66962;HTU21D;53897;51.126;5.868;2023-07-02T03:28:04;26.58;45.16
66962;HTU21D;53897;51.126;5.868;2023-07-02T03:30:30;26.58;45.17
66962;HTU21D;53897;51.126;5.868;2023-07-02T03:32:57;26.58;45.21
66962;HTU21D;53897;51.126;5.868;2023-07-02T03:35:23;26.57;45.22
66962;HTU21D;53897;51.126;5.868;2023-07-02T03:37:48;26.57;45.24
66962;HTU21D;53897;51.126;5.868;2023-07-02T03:40:14;26.56;45.19
66962;HTU21D;53897;51.126;5.868;2023-07-02T03:42:40;26.56;45.13
66962;HTU21D;53897;51.126;5.868;2023-07-02T03:45:06;26.57;45.15
66962;HTU21D;53897;51.126;5.868;2023-07-02T03:47:32;26.56;45.17
66962;HTU21D;53897;51.126;5.868;2023-07-02T03:49:57;26.55;45.24
66962;HTU21D;53897;51.126;5.868;2023-07-02T03:52:23;26.55;45.22
66962;HTU21D;53897;51.126;5.868;2023-07-02T03:54:49;26.54;45.16
66962;HTU21D;53897;51.126;5.868;2023-07-02T03:57:14;26.55;45.13
66962;HTU21D;53897;51.126;5.868;2023-07-02T03:59:40;26.54;45.10
66962;HTU21D;53897;51.126;5.868;2023-07-02T04:02:06;26.54;45.16
66962;HTU21D;53897;51.126;5.868;2023-07-02T04:04:31;26.53;45.17
66962;HTU21D;53897;51.126;5.868;2023-07-02T04:06:57;26.53;45.18
66962;HTU21D;53897;51.126;5.868;2023-07-02T04:09:23;26.53;45.12
66962;HTU21D;53897;51.126;5.868;2023-07-02T04:11:48;26.53;45.12
66962;HTU21D;53897;51.126;5.868;2023-07-02T04:14:14;26.53;45.12
66962;HTU21D;53897;51.126;5.868;2023-07-02T04:16:42;26.52;45.16
66962;HTU21D;53897;51.126;5.868;2023-07-02T04:19:09;26.52;45.20
66962;HTU21D;53897;51.126;5.868;2023-07-02T04:21:35;26.52;45.22
66962;HTU21D;53897;51.126;5.868;2023-07-02T04:24:01;26.52;45.17
66962;HTU21D;53897;51.126;5.868;2023-07-02T04:26:27;26.51;45.20
66962;HTU21D;53897;51.126;5.868;2023-07-02T04:28:54;26.51;45.21
66962;HTU21D;53897;51.126;5.868;2023-07-02T04:31:21;26.51;45.25
66962;HTU21D;53897;51.126;5.868;2023-07-02T04:33:46;26.49;45.25
66962;HTU21D;53897;51.126;5.868;2023-07-02T04:36:12;26.50;45.25
66962;HTU21D;53897;51.126;5.868;2023-07-02T04:38:38;26.49;45.28
66962;HTU21D;53897;51.126;5.868;2023-07-02T04:41:05;26.49;45.33
66962;HTU21D;53897;51.126;5.868;2023-07-02T04:43:31;26.49;45.31
66962;HTU21D;53897;51.126;5.868;2023-07-02T04:45:58;26.48;45.28
66962;HTU21D;53897;51.126;5.868;2023-07-02T04:48:24;26.48;45.28
66962;HTU21D;53897;51.126;5.868;2023-07-02T04:50:50;26.47;45.30
66962;HTU21D;53897;51.126;5.868;2023-07-02T04:53:15;26.48;45.34
66962;HTU21D;53897;51.126;5.868;2023-07-02T04:55:41;26.47;45.35
66962;HTU21D;53897;51.126;5.868;2023-07-02T04:58:07;26.46;45.32
66962;HTU21D;53897;51.126;5.868;2023-07-02T05:00:33;26.47;45.20
66962;HTU21D;53897;51.126;5.868;2023-07-02T05:02:58;26.45;44.81
66962;HTU21D;53897;51.126;5.868;2023-07-02T05:05:24;26.45;44.69
66962;HTU21D;53897;51.126;5.868;2023-07-02T05:07:50;26.45;44.78
66962;HTU21D;53897;51.126;5.868;2023-07-02T05:10:16;26.45;44.84
66962;HTU21D;53897;51.126;5.868;2023-07-02T05:12:41;26.43;44.96
66962;HTU21D;53897;51.126;5.868;2023-07-02T05:15:07;26.41;45.07
66962;HTU21D;53897;51.126;5.868;2023-07-02T05:17:33;26.39;45.18
66962;HTU21D;53897;51.126;5.868;2023-07-02T05:20:01;26.36;45.25
66962;HTU21D;53897;51.126;5.868;2023-07-02T05:22:27;26.34;45.36
66962;HTU21D;53897;51.126;5.868;2023-07-02T05:24:53;26.32;45.46
66962;HTU21D;53897;51.126;5.868;2023-07-02T05:27:19;26.26;45.60
66962;HTU21D;53897;51.126;5.868;2023-07-02T05:29:44;26.23;45.70
66962;HTU21D;53897;51.126;5.868;2023-07-02T05:32:10;26.20;45.80
66962;HTU21D;53897;51.126;5.868;2023-07-02T05:34:36;26.18;45.89
66962;HTU21D;53897;51.126;5.868;2023-07-02T05:37:01;26.17;45.94
66962;HTU21D;53897;51.126;5.868;2023-07-02T05:39:27;26.17;45.99
66962;HTU21D;53897;51.126;5.868;2023-07-02T05:41:53;26.15;46.03
66962;HTU21D;53897;51.126;5.868;2023-07-02T05:44:19;26.13;46.10
66962;HTU21D;53897;51.126;5.868;2023-07-02T05:46:45;26.13;46.13
66962;HTU21D;53897;51.126;5.868;2023-07-02T05:49:10;26.12;46.15
66962;HTU21D;53897;51.126;5.868;2023-07-02T05:51:36;26.13;46.18
66962;HTU21D;53897;51.126;5.868;2023-07-02T05:54:02;26.11;46.22
66962;HTU21D;53897;51.126;5.868;2023-07-02T05:56:27;26.10;46.26
66962;HTU21D;53897;51.126;5.868;2023-07-02T05:58:53;26.10;46.31
66962;HTU21D;53897;51.126;5.868;2023-07-02T06:01:19;26.09;46.35
66962;HTU21D;53897;51.126;5.868;2023-07-02T06:03:44;26.09;46.38
66962;HTU21D;53897;51.126;5.868;2023-07-02T06:06:11;26.12;46.35
66962;HTU21D;53897;51.126;5.868;2023-07-02T06:08:37;26.16;46.28
66962;HTU21D;53897;51.126;5.868;2023-07-02T06:11:03;26.18;46.23
66962;HTU21D;53897;51.126;5.868;2023-07-02T06:13:28;26.21;46.19
66962;HTU21D;53897;51.126;5.868;2023-07-02T06:15:54;26.24;46.13
66962;HTU21D;53897;51.126;5.868;2023-07-02T06:18:20;26.26;46.10
66962;HTU21D;53897;51.126;5.868;2023-07-02T06:20:46;26.28;46.02
66962;HTU21D;53897;51.126;5.868;2023-07-02T06:23:11;26.31;45.97
66962;HTU21D;53897;51.126;5.868;2023-07-02T06:25:37;26.31;45.91
66962;HTU21D;53897;51.126;5.868;2023-07-02T06:28:03;26.33;45.92
66962;HTU21D;53897;51.126;5.868;2023-07-02T06:30:29;26.35;46.03
66962;HTU21D;53897;51.126;5.868;2023-07-02T06:32:55;26.35;46.10
66962;HTU21D;53897;51.126;5.868;2023-07-02T06:35:21;26.36;45.96
66962;HTU21D;53897;51.126;5.868;2023-07-02T06:37:49;26.37;45.83
66962;HTU21D;53897;51.126;5.868;2023-07-02T06:40:15;26.36;45.67
66962;HTU21D;53897;51.126;5.868;2023-07-02T06:42:40;26.37;45.61
66962;HTU21D;53897;51.126;5.868;2023-07-02T06:45:06;26.39;45.50
66962;HTU21D;53897;51.126;5.868;2023-07-02T06:47:32;26.38;45.52
66962;HTU21D;53897;51.126;5.868;2023-07-02T06:49:58;26.37;45.52
66962;HTU21D;53897;51.126;5.868;2023-07-02T06:52:24;26.37;45.48
66962;HTU21D;53897;51.126;5.868;2023-07-02T06:54:50;26.38;45.41
66962;HTU21D;53897;51.126;5.868;2023-07-02T06:57:16;26.38;45.38
66962;HTU21D;53897;51.126;5.868;2023-07-02T06:59:42;26.39;45.37
66962;HTU21D;53897;51.126;5.868;2023-07-02T07:02:07;26.40;45.23
66962;HTU21D;53897;51.126;5.868;2023-07-02T07:04:33;26.39;45.14
66962;HTU21D;53897;51.126;5.868;2023-07-02T07:07:02;26.40;45.20
66962;HTU21D;53897;51.126;5.868;2023-07-02T07:09:29;26.40;45.09
66962;HTU21D;53897;51.126;5.868;2023-07-02T07:11:55;26.40;45.03
66962;HTU21D;53897;51.126;5.868;2023-07-02T07:14:20;26.41;44.84
66962;HTU21D;53897;51.126;5.868;2023-07-02T07:16:46;26.40;44.87
66962;HTU21D;53897;51.126;5.868;2023-07-02T07:19:12;26.40;44.96
66962;HTU21D;53897;51.126;5.868;2023-07-02T07:21:38;26.41;44.83
66962;HTU21D;53897;51.126;5.868;2023-07-02T07:24:04;26.41;44.72
66962;HTU21D;53897;51.126;5.868;2023-07-02T07:26:30;26.40;44.82
66962;HTU21D;53897;51.126;5.868;2023-07-02T07:28:55;26.40;44.99
66962;HTU21D;53897;51.126;5.868;2023-07-02T07:31:24;26.41;44.99
66962;HTU21D;53897;51.126;5.868;2023-07-02T07:33:50;26.41;44.98
66962;HTU21D;53897;51.126;5.868;2023-07-02T07:36:15;26.42;44.88
66962;HTU21D;53897;51.126;5.868;2023-07-02T07:38:43;26.42;44.82
66962;HTU21D;53897;51.126;5.868;2023-07-02T07:41:09;26.42;44.96
66962;HTU21D;53897;51.126;5.868;2023-07-02T07:43:35;26.43;45.04
66962;HTU21D;53897;51.126;5.868;2023-07-02T07:46:00;26.43;45.06
66962;HTU21D;53897;51.126;5.868;2023-07-02T07:48:26;26.45;45.12
66962;HTU21D;53897;51.126;5.868;2023-07-02T07:50:52;26.43;45.21
66962;HTU21D;53897;51.126;5.868;2023-07-02T07:53:18;26.45;45.24
66962;HTU21D;53897;51.126;5.868;2023-07-02T07:55:43;26.45;45.21
66962;HTU21D;53897;51.126;5.868;2023-07-02T07:58:09;26.46;45.27
66962;HTU21D;53897;51.126;5.868;2023-07-02T08:00:35;26.46;45.34
66962;HTU21D;53897;51.126;5.868;2023-07-02T08:03:01;26.48;45.37
66962;HTU21D;53897;51.126;5.868;2023-07-02T08:05:29;26.47;45.40
66962;HTU21D;53897;51.126;5.868;2023-07-02T08:07:55;26.48;45.43
66962;HTU21D;53897;51.126;5.868;2023-07-02T08:10:21;26.48;45.51
66962;HTU21D;53897;51.126;5.868;2023-07-02T08:12:47;26.49;45.48
66962;HTU21D;53897;51.126;5.868;2023-07-02T08:15:14;26.49;45.35
66962;HTU21D;53897;51.126;5.868;2023-07-02T08:17:39;26.49;45.43
66962;HTU21D;53897;51.126;5.868;2023-07-02T08:20:05;26.51;45.47
66962;HTU21D;53897;51.126;5.868;2023-07-02T08:22:36;26.50;45.47
66962;HTU21D;53897;51.126;5.868;2023-07-02T08:25:02;26.48;45.54
66962;HTU21D;53897;51.126;5.868;2023-07-02T08:27:28;26.48;45.63
66962;HTU21D;53897;51.126;5.868;2023-07-02T08:29:54;26.43;45.76
66962;HTU21D;53897;51.126;5.868;2023-07-02T08:32:20;26.39;45.90
66962;HTU21D;53897;51.126;5.868;2023-07-02T08:34:46;26.35;46.04
66962;HTU21D;53897;51.126;5.868;2023-07-02T08:37:12;26.34;46.15
66962;HTU21D;53897;51.126;5.868;2023-07-02T08:39:38;26.32;46.19
66962;HTU21D;53897;51.126;5.868;2023-07-02T08:42:05;26.27;46.28
66962;HTU21D;53897;51.126;5.868;2023-07-02T08:44:31;26.26;46.38
66962;HTU21D;53897;51.126;5.868;2023-07-02T08:46:57;26.25;46.45
66962;HTU21D;53897;51.126;5.868;2023-07-02T08:49:23;26.28;46.43
66962;HTU21D;53897;51.126;5.868;2023-07-02T08:51:48;26.30;46.37
66962;HTU21D;53897;51.126;5.868;2023-07-02T08:54:17;26.28;46.44
66962;HTU21D;53897;51.126;5.868;2023-07-02T08:56:44;26.31;46.45
66962;HTU21D;53897;51.126;5.868;2023-07-02T08:59:11;26.34;46.38
66962;HTU21D;53897;51.126;5.868;2023-07-02T09:01:51;26.36;46.33
66962;HTU21D;53897;51.126;5.868;2023-07-02T09:04:25;26.38;46.31
66962;HTU21D;53897;51.126;5.868;2023-07-02T09:07:05;26.37;46.31
66962;HTU21D;53897;51.126;5.868;2023-07-02T09:09:33;26.35;46.38
66962;HTU21D;53897;51.126;5.868;2023-07-02T09:12:09;26.36;46.36
66962;HTU21D;53897;51.126;5.868;2023-07-02T09:14:35;26.39;46.33
66962;HTU21D;53897;51.126;5.868;2023-07-02T09:17:08;26.42;46.29
66962;HTU21D;53897;51.126;5.868;2023-07-02T09:19:36;26.43;46.24
66962;HTU21D;53897;51.126;5.868;2023-07-02T09:22:02;26.46;46.08
66962;HTU21D;53897;51.126;5.868;2023-07-02T09:24:30;26.49;46.06
66962;HTU21D;53897;51.126;5.868;2023-07-02T09:26:59;26.49;45.96
66962;HTU21D;53897;51.126;5.868;2023-07-02T09:29:34;26.51;45.89
66962;HTU21D;53897;51.126;5.868;2023-07-02T09:32:03;26.51;45.92
66962;HTU21D;53897;51.126;5.868;2023-07-02T09:34:30;26.55;45.92
66962;HTU21D;53897;51.126;5.868;2023-07-02T09:36:58;26.54;45.93
66962;HTU21D;53897;51.126;5.868;2023-07-02T09:39:30;26.55;45.91
66962;HTU21D;53897;51.126;5.868;2023-07-02T09:41:58;26.56;45.84
66962;HTU21D;53897;51.126;5.868;2023-07-02T09:44:29;26.57;45.83
66962;HTU21D;53897;51.126;5.868;2023-07-02T09:47:02;26.58;45.88
66962;HTU21D;53897;51.126;5.868;2023-07-02T09:49:36;26.57;45.86
66962;HTU21D;53897;51.126;5.868;2023-07-02T09:52:06;26.53;45.93
66962;HTU21D;53897;51.126;5.868;2023-07-02T09:54:34;26.53;45.99
66962;HTU21D;53897;51.126;5.868;2023-07-02T09:57:00;26.53;45.94
66962;HTU21D;53897;51.126;5.868;2023-07-02T09:59:27;26.55;45.77
66962;HTU21D;53897;51.126;5.868;2023-07-02T10:01:54;26.57;45.60
66962;HTU21D;53897;51.126;5.868;2023-07-02T10:04:20;26.57;45.62
66962;HTU21D;53897;51.126;5.868;2023-07-02T10:06:55;26.58;45.55
66962;HTU21D;53897;51.126;5.868;2023-07-02T10:09:40;26.61;45.48
66962;HTU21D;53897;51.126;5.868;2023-07-02T10:12:23;26.61;45.41
66962;HTU21D;53897;51.126;5.868;2023-07-02T10:14:51;26.62;45.38
66962;HTU21D;53897;51.126;5.868;2023-07-02T10:17:34;26.63;45.39
66962;HTU21D;53897;51.126;5.868;2023-07-02T10:20:05;26.62;45.46
66962;HTU21D;53897;51.126;5.868;2023-07-02T10:22:47;26.64;45.48
66962;HTU21D;53897;51.126;5.868;2023-07-02T10:25:27;26.64;45.53
66962;HTU21D;53897;51.126;5.868;2023-07-02T10:27:53;26.64;45.53
66962;HTU21D;53897;51.126;5.868;2023-07-02T10:30:30;26.65;45.64
66962;HTU21D;53897;51.126;5.868;2023-07-02T10:33:16;26.65;45.76
66962;HTU21D;53897;51.126;5.868;2023-07-02T10:35:47;26.65;45.78
66962;HTU21D;53897;51.126;5.868;2023-07-02T10:38:19;26.66;45.78
66962;HTU21D;53897;51.126;5.868;2023-07-02T10:40:46;26.66;45.85
66962;HTU21D;53897;51.126;5.868;2023-07-02T10:43:12;26.67;45.86
66962;HTU21D;53897;51.126;5.868;2023-07-02T10:45:38;26.67;45.94
66962;HTU21D;53897;51.126;5.868;2023-07-02T10:48:08;26.68;45.89
66962;HTU21D;53897;51.126;5.868;2023-07-02T10:50:35;26.69;46.04
66962;HTU21D;53897;51.126;5.868;2023-07-02T10:53:00;26.70;46.09
66962;HTU21D;53897;51.126;5.868;2023-07-02T10:55:27;26.71;46.07
66962;HTU21D;53897;51.126;5.868;2023-07-02T10:58:10;26.72;46.00
66962;HTU21D;53897;51.126;5.868;2023-07-02T11:00:50;26.72;45.95
66962;HTU21D;53897;51.126;5.868;2023-07-02T11:03:23;26.72;45.95
66962;HTU21D;53897;51.126;5.868;2023-07-02T11:05:50;26.75;45.93
66962;HTU21D;53897;51.126;5.868;2023-07-02T11:08:16;26.73;45.92
66962;HTU21D;53897;51.126;5.868;2023-07-02T11:10:43;26.75;45.96
66962;HTU21D;53897;51.126;5.868;2023-07-02T11:13:17;26.77;46.12
66962;HTU21D;53897;51.126;5.868;2023-07-02T11:15:43;26.78;46.02
66962;HTU21D;53897;51.126;5.868;2023-07-02T11:18:12;26.78;46.19
66962;HTU21D;53897;51.126;5.868;2023-07-02T11:20:40;26.76;46.38
66962;HTU21D;53897;51.126;5.868;2023-07-02T11:23:20;26.72;46.60
66962;HTU21D;53897;51.126;5.868;2023-07-02T11:25:56;26.71;46.77
66962;HTU21D;53897;51.126;5.868;2023-07-02T11:28:23;26.72;46.68
66962;HTU21D;53897;51.126;5.868;2023-07-02T11:30:49;26.73;46.80
66962;HTU21D;53897;51.126;5.868;2023-07-02T11:33:14;26.73;46.94
66962;HTU21D;53897;51.126;5.868;2023-07-02T11:35:40;26.75;47.05
66962;HTU21D;53897;51.126;5.868;2023-07-02T11:38:09;26.77;47.09
66962;HTU21D;53897;51.126;5.868;2023-07-02T11:40:38;26.78;46.93
66962;HTU21D;53897;51.126;5.868;2023-07-02T11:43:06;26.80;46.80
66962;HTU21D;53897;51.126;5.868;2023-07-02T11:45:32;26.81;46.81
66962;HTU21D;53897;51.126;5.868;2023-07-02T11:47:57;26.82;46.75
66962;HTU21D;53897;51.126;5.868;2023-07-02T11:50:23;26.83;46.78
66962;HTU21D;53897;51.126;5.868;2023-07-02T11:52:49;26.85;46.81
66962;HTU21D;53897;51.126;5.868;2023-07-02T11:55:15;26.85;46.89
66962;HTU21D;53897;51.126;5.868;2023-07-02T11:57:40;26.87;46.89
66962;HTU21D;53897;51.126;5.868;2023-07-02T12:00:07;26.89;46.83
66962;HTU21D;53897;51.126;5.868;2023-07-02T12:02:33;26.89;46.77
66962;HTU21D;53897;51.126;5.868;2023-07-02T12:04:59;26.91;46.73
66962;HTU21D;53897;51.126;5.868;2023-07-02T12:07:25;26.92;46.71
66962;HTU21D;53897;51.126;5.868;2023-07-02T12:09:50;26.93;46.69
66962;HTU21D;53897;51.126;5.868;2023-07-02T12:12:16;26.95;46.66
66962;HTU21D;53897;51.126;5.868;2023-07-02T12:14:42;26.95;46.64
66962;HTU21D;53897;51.126;5.868;2023-07-02T12:17:09;26.95;46.61
66962;HTU21D;53897;51.126;5.868;2023-07-02T12:19:39;26.96;46.59
66962;HTU21D;53897;51.126;5.868;2023-07-02T12:22:06;26.98;46.54
66962;HTU21D;53897;51.126;5.868;2023-07-02T12:24:31;26.99;46.51
66962;HTU21D;53897;51.126;5.868;2023-07-02T12:26:57;26.99;46.49
66962;HTU21D;53897;51.126;5.868;2023-07-02T12:29:23;26.99;46.49
66962;HTU21D;53897;51.126;5.868;2023-07-02T12:31:49;27.00;46.46
66962;HTU21D;53897;51.126;5.868;2023-07-02T12:34:14;27.00;46.45
66962;HTU21D;53897;51.126;5.868;2023-07-02T12:36:40;27.00;46.44
66962;HTU21D;53897;51.126;5.868;2023-07-02T12:39:06;27.01;46.42
66962;HTU21D;53897;51.126;5.868;2023-07-02T12:41:33;27.02;46.40
66962;HTU21D;53897;51.126;5.868;2023-07-02T12:43:59;27.02;46.38
66962;HTU21D;53897;51.126;5.868;2023-07-02T12:46:25;27.04;46.35
66962;HTU21D;53897;51.126;5.868;2023-07-02T12:48:51;27.05;46.34
66962;HTU21D;53897;51.126;5.868;2023-07-02T12:51:17;27.04;46.33
66962;HTU21D;53897;51.126;5.868;2023-07-02T12:53:42;27.05;46.31
66962;HTU21D;53897;51.126;5.868;2023-07-02T12:56:08;27.04;46.29
66962;HTU21D;53897;51.126;5.868;2023-07-02T12:58:34;27.06;46.31
66962;HTU21D;53897;51.126;5.868;2023-07-02T13:00:59;27.04;46.28
66962;HTU21D;53897;51.126;5.868;2023-07-02T13:03:25;27.05;46.31
66962;HTU21D;53897;51.126;5.868;2023-07-02T13:05:51;27.06;46.30
66962;HTU21D;53897;51.126;5.868;2023-07-02T13:08:17;27.07;46.28
66962;HTU21D;53897;51.126;5.868;2023-07-02T13:10:43;27.07;46.27
66962;HTU21D;53897;51.126;5.868;2023-07-02T13:13:09;27.06;46.26
66962;HTU21D;53897;51.126;5.868;2023-07-02T13:15:34;27.06;46.33
66962;HTU21D;53897;51.126;5.868;2023-07-02T13:18:01;27.05;46.34
66962;HTU21D;53897;51.126;5.868;2023-07-02T13:20:27;27.06;46.35
66962;HTU21D;53897;51.126;5.868;2023-07-02T13:22:54;27.08;46.35
66962;HTU21D;53897;51.126;5.868;2023-07-02T13:25:20;27.08;46.38
66962;HTU21D;53897;51.126;5.868;2023-07-02T13:27:45;27.07;46.50
66962;HTU21D;53897;51.126;5.868;2023-07-02T13:30:11;27.06;46.87
66962;HTU21D;53897;51.126;5.868;2023-07-02T13:32:37;27.07;47.24
66962;HTU21D;53897;51.126;5.868;2023-07-02T13:35:03;27.06;47.73
66962;HTU21D;53897;51.126;5.868;2023-07-02T13:37:28;27.07;48.06
66962;HTU21D;53897;51.126;5.868;2023-07-02T13:39:54;27.08;48.21
66962;HTU21D;53897;51.126;5.868;2023-07-02T13:42:20;27.08;48.05
66962;HTU21D;53897;51.126;5.868;2023-07-02T13:44:46;27.10;48.18
66962;HTU21D;53897;51.126;5.868;2023-07-02T13:47:12;27.10;48.16
66962;HTU21D;53897;51.126;5.868;2023-07-02T13:49:37;27.10;48.22
66962;HTU21D;53897;51.126;5.868;2023-07-02T13:52:03;27.12;48.28
66962;HTU21D;53897;51.126;5.868;2023-07-02T13:54:29;27.11;48.40
66962;HTU21D;53897;51.126;5.868;2023-07-02T13:56:56;27.12;48.48
66962;HTU21D;53897;51.126;5.868;2023-07-02T13:59:22;27.13;48.39
66962;HTU21D;53897;51.126;5.868;2023-07-02T14:01:48;27.16;48.34
66962;HTU21D;53897;51.126;5.868;2023-07-02T14:04:15;27.16;48.28
66962;HTU21D;53897;51.126;5.868;2023-07-02T14:06:41;27.19;48.14
66962;HTU21D;53897;51.126;5.868;2023-07-02T14:09:08;27.19;47.99
66962;HTU21D;53897;51.126;5.868;2023-07-02T14:11:36;27.21;47.88
66962;HTU21D;53897;51.126;5.868;2023-07-02T14:14:03;27.22;47.79
66962;HTU21D;53897;51.126;5.868;2023-07-02T14:16:30;27.23;47.63
66962;HTU21D;53897;51.126;5.868;2023-07-02T14:18:56;27.23;47.56
66962;HTU21D;53897;51.126;5.868;2023-07-02T14:21:22;27.26;47.40
66962;HTU21D;53897;51.126;5.868;2023-07-02T14:23:47;27.26;47.33
66962;HTU21D;53897;51.126;5.868;2023-07-02T14:26:13;27.26;47.25
66962;HTU21D;53897;51.126;5.868;2023-07-02T14:28:39;27.25;47.29
66962;HTU21D;53897;51.126;5.868;2023-07-02T14:31:06;27.27;47.17
66962;HTU21D;53897;51.126;5.868;2023-07-02T14:33:35;27.26;47.07
66962;HTU21D;53897;51.126;5.868;2023-07-02T14:36:02;27.28;46.99
66962;HTU21D;53897;51.126;5.868;2023-07-02T14:38:28;27.28;46.91
66962;HTU21D;53897;51.126;5.868;2023-07-02T14:40:55;27.29;46.85
66962;HTU21D;53897;51.126;5.868;2023-07-02T14:43:24;27.27;46.76
66962;HTU21D;53897;51.126;5.868;2023-07-02T14:45:52;27.28;46.71
66962;HTU21D;53897;51.126;5.868;2023-07-02T14:48:18;27.29;46.64
66962;HTU21D;53897;51.126;5.868;2023-07-02T14:50:52;27.30;46.56
66962;HTU21D;53897;51.126;5.868;2023-07-02T14:53:19;27.30;46.53
66962;HTU21D;53897;51.126;5.868;2023-07-02T14:55:46;27.30;46.45
66962;HTU21D;53897;51.126;5.868;2023-07-02T14:58:13;27.31;46.42
66962;HTU21D;53897;51.126;5.868;2023-07-02T15:00:51;27.30;46.39
66962;HTU21D;53897;51.126;5.868;2023-07-02T15:03:18;27.30;46.33
66962;HTU21D;53897;51.126;5.868;2023-07-02T15:05:46;27.32;46.29
66962;HTU21D;53897;51.126;5.868;2023-07-02T15:08:13;27.34;46.21
66962;HTU21D;53897;51.126;5.868;2023-07-02T15:10:40;27.34;46.18
66962;HTU21D;53897;51.126;5.868;2023-07-02T15:13:07;27.34;46.22
66962;HTU21D;53897;51.126;5.868;2023-07-02T15:15:33;27.34;46.19